Friday, February 27, 2015, 5:36 PM EST

KOKV, Winchester Regional

Location: Winchester, VA, United States Lat: 39.15
Local Time: 5:36 PM EST (22:36 GMT) Lon: -78.15
Time Zone: US/Eastern Elev: 728 ft

Show me the last for .
Show Decoded

2015-02-27 17:15 METAR KOKV 272215Z AUTO 32010KT 10SM CLR M01/M17 A3046 RMK AO2 =
2015-02-27 16:55 METAR KOKV 272155Z AUTO 30014G18KT 10SM CLR 00/M17 A3045 RMK AO2 =
2015-02-27 16:35 METAR KOKV 272135Z AUTO 30014G17KT 10SM CLR 00/M16 A3045 RMK AO2 =
2015-02-27 16:15 METAR KOKV 272115Z AUTO 31009KT 10SM CLR 00/M17 A3045 RMK AO2 =
2015-02-27 15:55 METAR KOKV 272055Z AUTO 28011G16KT 10SM CLR 00/M16 A3044 RMK AO2 =
2015-02-27 15:35 METAR KOKV 272035Z AUTO 30016KT 10SM CLR 00/M16 A3044 RMK AO2 =
2015-02-27 15:15 METAR KOKV 272015Z AUTO 30013G16KT 10SM SCT060 00/M16 A3043 RMK AO2 =
2015-02-27 14:55 METAR KOKV 271955Z AUTO 32012KT 10SM CLR 00/M16 A3042 RMK AO2 =
2015-02-27 14:35 METAR KOKV 271935Z AUTO 32013KT 10SM CLR 00/M16 A3041 RMK AO2 =
2015-02-27 14:15 METAR KOKV 271915Z AUTO 34009G15KT 10SM CLR 00/M17 A3041 RMK AO2 =
2015-02-27 13:35 METAR KOKV 271835Z AUTO 33009G14KT 10SM CLR 00/M17 A3041 RMK AO2 =
2015-02-27 13:15 METAR KOKV 271815Z AUTO 31012KT 10SM CLR 00/M16 A3041 RMK AO2 =
2015-02-27 12:55 METAR KOKV 271755Z AUTO 31014G17KT 10SM CLR 00/M15 A3042 RMK AO2 =
2015-02-27 12:35 METAR KOKV 271735Z AUTO 30012G16KT 10SM CLR M01/M17 A3042 RMK AO2 =
2015-02-27 12:15 METAR KOKV 271715Z AUTO 31013G17KT 10SM CLR M01/M15 A3042 RMK AO2 =
2015-02-27 11:55 METAR KOKV 271655Z AUTO 31013G18KT 10SM CLR M01/M16 A3042 RMK AO2 =
2015-02-27 11:35 METAR KOKV 271635Z AUTO 31008KT 10SM SCT042 M02/M16 A3042 RMK AO2 =
2015-02-27 11:15 METAR KOKV 271615Z AUTO 33007G15KT 10SM CLR M02/M16 A3042 RMK AO2 =
2015-02-27 10:55 METAR KOKV 271555Z AUTO 32011G15KT 10SM CLR M02/M16 A3042 RMK AO2 =
2015-02-27 10:35 METAR KOKV 271535Z AUTO 32009KT 10SM CLR M03/M16 A3041 RMK AO2 =
2015-02-27 10:15 METAR KOKV 271515Z AUTO 30011KT 10SM CLR M03/M16 A3041 RMK AO2 =
2015-02-27 09:35 METAR KOKV 271435Z AUTO 34005KT 10SM CLR M03/M16 A3040 RMK AO2 =
2015-02-27 09:15 METAR KOKV 271415Z AUTO 33010KT 10SM CLR M04/M16 A3040 RMK AO2 =
2015-02-27 08:55 METAR KOKV 271355Z AUTO 32009KT 10SM CLR M05/M16 A3039 RMK AO2 =
2015-02-27 08:35 METAR KOKV 271335Z AUTO 32008KT 10SM CLR M05/M16 A3039 RMK AO2 =
2015-02-27 08:15 METAR KOKV 271315Z AUTO 34008KT 10SM CLR M05/M16 A3038 RMK AO2 =
2015-02-27 07:55 METAR KOKV 271255Z AUTO 34006KT 10SM CLR M06/M15 A3036 RMK AO2 =
2015-02-27 07:35 METAR KOKV 271235Z AUTO 32009KT 10SM CLR M05/M15 A3035 RMK AO2 =
2015-02-27 07:15 METAR KOKV 271215Z AUTO 32006KT 10SM CLR M05/M15 A3034 RMK AO2 =
2015-02-27 06:55 METAR KOKV 271155Z AUTO 33003KT 10SM BKN085 M05/M14 A3032 RMK AO2 =
2015-02-27 06:35 METAR KOKV 271135Z AUTO 31010KT 10SM OVC085 M04/M13 A3030 RMK AO2 =
2015-02-27 06:15 METAR KOKV 271115Z AUTO 33010G16KT 10SM OVC085 M04/M13 A3027 RMK AO2 =
2015-02-27 05:55 METAR KOKV 271055Z AUTO 32013G17KT 10SM OVC085 M03/M13 A3026 RMK AO2 =
2015-02-27 05:35 METAR KOKV 271035Z AUTO 33010G17KT 10SM BKN085 M03/M12 A3025 RMK AO2 =
2015-02-27 05:15 METAR KOKV 271015Z AUTO 33007KT 300V360 10SM SCT050 M03/M11 A3023 RMK AO2 =
2015-02-27 04:55 METAR KOKV 270955Z AUTO 34006KT 10SM BKN050 M02/M11 A3023 RMK AO2 =
2015-02-27 04:35 METAR KOKV 270935Z AUTO 34004KT 10SM BKN050 M02/M10 A3022 RMK AO2 =
2015-02-27 04:15 METAR KOKV 270915Z AUTO 31003KT 10SM SCT050 M02/M10 A3021 RMK AO2 =
2015-02-27 03:55 METAR KOKV 270855Z AUTO 32006KT 10SM CLR M01/M10 A3019 RMK AO2 =
2015-02-27 03:35 METAR KOKV 270835Z AUTO 32008KT 10SM BKN090 M01/M10 A3018 RMK AO2 =
2015-02-27 03:15 METAR KOKV 270815Z AUTO 32005KT 10SM SCT055 OVC090 M01/M10 A3019 RMK AO2 =
2015-02-27 02:55 METAR KOKV 270755Z AUTO 33006KT 10SM SCT060 SCT065 OVC090 M01/M10 A3018 RMK AO2
                 =
2015-02-27 02:35 METAR KOKV 270735Z AUTO 32004KT 10SM SCT060 OVC090 M01/M09 A3017 RMK AO2 =
2015-02-27 02:15 METAR KOKV 270715Z AUTO 33005KT 10SM SCT060 OVC090 M01/M09 A3016 RMK AO2 =
2015-02-27 01:55 METAR KOKV 270655Z AUTO 33004KT 10SM SCT060 SCT070 BKN090 M01/M08 A3016 RMK AO2
                 =
2015-02-27 01:35 METAR KOKV 270635Z AUTO 35003KT 10SM SCT070 BKN090 M01/M08 A3015 RMK AO2 =
2015-02-27 01:15 METAR KOKV 270615Z AUTO 00000KT 10SM SCT075 BKN080 00/M07 A3015 RMK AO2 =
2015-02-27 00:55 METAR KOKV 270555Z AUTO 00000KT 10SM SCT055 SCT075 BKN090 00/M06 A3014 RMK AO2 =
2015-02-27 00:35 METAR KOKV 270535Z AUTO 35003KT 7SM SCT055 BKN090 M01/M05 A3014 RMK AO2 =
2015-02-27 00:15 METAR KOKV 270515Z AUTO 00000KT 7SM BKN026 OVC055 M02/M05 A3013 RMK AO2 =
2015-02-26 23:55 METAR KOKV 270455Z AUTO 00000KT 5SM HZ BKN028 BKN055 M03/M06 A3012 RMK AO2 =
2015-02-26 23:35 METAR KOKV 270435Z AUTO 00000KT 7SM BKN032 M02/M06 A3011 RMK AO2 =
2015-02-26 23:15 METAR KOKV 270415Z AUTO 00000KT 7SM BKN025 BKN032 M02/M06 A3010 RMK AO2 =
2015-02-26 22:55 METAR KOKV 270355Z AUTO 00000KT 7SM SCT027 M03/M06 A3010 RMK AO2 =
2015-02-26 22:35 METAR KOKV 270335Z AUTO 00000KT 7SM CLR M04/M07 A3010 RMK AO2 =
2015-02-26 22:15 METAR KOKV 270315Z AUTO 00000KT 7SM SCT050 M02/M06 A3008 RMK AO2 =
2015-02-26 21:55 METAR KOKV 270255Z AUTO 00000KT 7SM BKN048 BKN050 M02/M06 A3008 RMK AO2 =
2015-02-26 21:35 METAR KOKV 270235Z AUTO 00000KT 10SM SCT033 SCT044 OVC050 00/M06 A3008 RMK AO2 =
2015-02-26 21:15 METAR KOKV 270215Z AUTO 00000KT 7SM SCT037 BKN047 OVC060 00/M06 A3008 RMK AO2 =
2015-02-26 20:55 METAR KOKV 270155Z AUTO 00000KT 7SM SCT037 SCT047 OVC060 00/M05 A3007 RMK AO2 =
2015-02-26 20:35 METAR KOKV 270135Z AUTO 00000KT 10SM BKN037 BKN045 OVC060 00/M06 A3006 RMK AO2 =
2015-02-26 20:15 METAR KOKV 270115Z AUTO 00000KT 10SM SCT037 OVC050 00/M06 A3006 RMK AO2 =
2015-02-26 19:55 METAR KOKV 270055Z AUTO 00000KT 10SM OVC050 00/M06 A3005 RMK AO2 =
2015-02-26 19:35 METAR KOKV 270035Z AUTO 00000KT 10SM BKN050 OVC055 M01/M05 A3004 RMK AO2 =
2015-02-26 19:15 METAR KOKV 270015Z AUTO 00000KT 10SM SCT049 BKN065 M01/M06 A3003 RMK AO2 =
2015-02-26 18:55 METAR KOKV 262355Z AUTO 00000KT 10SM OVC049 00/M06 A3003 RMK AO2 =
2015-02-26 18:35 METAR KOKV 262335Z AUTO 00000KT 10SM OVC047 00/M06 A3002 RMK AO2 =
2015-02-26 18:15 METAR KOKV 262315Z AUTO 00000KT 10SM SCT047 00/M06 A3000 RMK AO2 =
2015-02-26 17:55 METAR KOKV 262255Z AUTO 14004KT 10SM SCT037 SCT070 00/M06 A2999 RMK AO2 =

Support USWX by starting your Amazon purchase here.